Time;durP1;ratioP1;P1;durP2;ratioP2;P2;SDS_P1;SDS_P2;PMS_P1;PMS_P2;Temp;Humidity;BMP_temperature;BMP_pressure;BME280_temperature;BME280_humidity;BME280_pressure;Samples;Min_cycle;Max_cycle;Signal;HPM_P1;HPM_P2
2023/02/12 00:01:15;;;;;;;50.63;22.88;;;7.10;99.90;;;;;;5076873;28;25106;-72
2023/02/12 00:03:42;;;;;;;46.63;22.05;;;7.00;99.90;;;;;;5075194;28;25095;-72
2023/02/12 00:06:11;;;;;;;49.22;23.52;;;7.10;99.90;;;;;;5076994;28;25068;-72
2023/02/12 00:08:39;;;;;;;46.97;22.63;;;7.00;99.90;;;;;;5076227;28;25057;-72
2023/02/12 00:11:14;;;;;;;40.33;20.02;;;7.10;99.90;;;;;;5076239;28;25124;-72
2023/02/12 00:13:42;;;;;;;44.35;22.00;;;7.00;99.90;;;;;;5075142;28;25081;-72
2023/02/12 00:16:13;;;;;;;47.25;21.80;;;7.10;99.90;;;;;;5076211;28;25056;-72
2023/02/12 00:18:41;;;;;;;49.85;22.23;;;7.10;99.90;;;;;;5076157;28;25075;-72
2023/02/12 00:21:08;;;;;;;49.30;23.50;;;7.10;99.90;;;;;;5076089;28;25079;-72
2023/02/12 00:23:37;;;;;;;50.03;23.08;;;7.10;99.90;;;;;;5075034;28;25113;-72
2023/02/12 00:26:14;;;;;;;48.28;22.85;;;7.10;99.90;;;;;;5076564;28;25080;-72
2023/02/12 00:28:41;;;;;;;;;;;7.00;99.90;;;;;;5076475;28;25158;-72
2023/02/12 00:31:10;;;;;;;47.42;23.17;;;7.10;99.90;;;;;;5074972;28;24074;-72
2023/02/12 00:33:38;;;;;;;48.47;22.58;;;7.10;99.90;;;;;;5074785;28;25106;-72
2023/02/12 00:36:06;;;;;;;49.05;23.45;;;7.10;99.90;;;;;;5076454;28;25103;-72
2023/02/12 00:38:34;;;;;;;50.38;22.65;;;7.10;99.90;;;;;;5074889;28;25064;-72
2023/02/12 00:41:01;;;;;;;57.15;23.75;;;7.10;99.90;;;;;;5076440;28;25124;-72
2023/02/12 00:43:28;;;;;;;46.47;23.52;;;7.10;99.90;;;;;;5076172;28;25049;-72
2023/02/12 00:45:56;;;;;;;48.25;24.45;;;7.10;99.90;;;;;;5076408;28;25072;-72
2023/02/12 00:48:23;;;;;;;58.67;25.58;;;7.10;99.90;;;;;;5075910;28;25097;-72
2023/02/12 00:50:50;;;;;;;50.90;22.25;;;7.10;99.90;;;;;;5076028;28;25063;-72
2023/02/12 00:53:18;;;;;;;48.05;23.02;;;7.10;99.90;;;;;;5074752;28;25122;-72
2023/02/12 00:55:46;;;;;;;46.35;22.73;;;7.10;99.90;;;;;;5075796;28;25082;-72
2023/02/12 00:58:15;;;;;;;48.92;23.08;;;7.10;99.90;;;;;;5076229;28;25074;-72
2023/02/12 01:00:43;;;;;;;47.42;22.08;;;7.10;99.90;;;;;;5075841;28;25076;-72
2023/02/12 01:03:10;;;;;;;44.17;22.15;;;7.10;99.90;;;;;;5075797;28;25111;-72
2023/02/12 01:05:37;;;;;;;49.15;22.90;;;7.10;99.90;;;;;;5076279;28;25075;-72
2023/02/12 01:08:05;;;;;;;48.78;23.40;;;7.10;99.90;;;;;;5075714;28;25125;-72
2023/02/12 01:10:32;;;;;;;40.13;21.08;;;7.10;99.90;;;;;;5078468;28;25104;-72
2023/02/12 01:13:00;;;;;;;46.03;23.13;;;7.10;99.90;;;;;;5079290;28;25089;-72
2023/02/12 01:15:27;;;;;;;50.78;23.05;;;7.10;99.90;;;;;;5079843;28;25055;-72
2023/02/12 01:17:54;;;;;;;48.60;23.13;;;7.10;99.90;;;;;;5078006;28;25091;-72
2023/02/12 01:20:23;;;;;;;51.30;24.67;;;7.10;99.90;;;;;;5079266;28;25062;-72
2023/02/12 01:22:50;;;;;;;45.92;22.40;;;7.10;99.90;;;;;;5078035;28;25267;-72
2023/02/12 01:25:18;;;;;;;43.83;21.33;;;7.10;99.90;;;;;;5079557;28;25079;-72
2023/02/12 01:27:45;;;;;;;47.10;22.92;;;7.10;99.90;;;;;;5078211;28;25125;-72
2023/02/12 01:30:14;;;;;;;45.15;21.48;;;7.20;99.90;;;;;;5078106;28;25061;-72
2023/02/12 01:32:42;;;;;;;44.17;21.23;;;7.20;99.90;;;;;;5081124;28;25057;-72
2023/02/12 01:35:10;;;;;;;44.50;22.30;;;7.20;99.90;;;;;;5099188;28;25067;-72
2023/02/12 01:37:38;;;;;;;48.42;22.17;;;7.20;99.90;;;;;;5081054;28;25091;-72
2023/02/12 01:40:07;;;;;;;47.78;22.30;;;7.20;99.90;;;;;;5081212;28;25067;-72
2023/02/12 01:42:35;;;;;;;50.30;24.08;;;7.20;99.90;;;;;;5081050;28;25075;-72
2023/02/12 01:45:44;;;;;;;42.13;22.00;;;7.20;99.90;;;;;;5098983;28;25092;-72
2023/02/12 01:48:13;;;;;;;47.00;23.70;;;7.10;99.90;;;;;;5091236;28;25078;-72
2023/02/12 01:50:43;;;;;;;48.58;22.08;;;7.10;99.90;;;;;;5098310;28;25085;-72
2023/02/12 01:53:10;;;;;;;46.03;22.00;;;7.10;99.90;;;;;;5098779;28;25159;-72
2023/02/12 01:55:37;;;;;;;47.85;23.75;;;7.10;99.90;;;;;;5098374;28;25068;-72
2023/02/12 01:58:05;;;;;;;50.15;22.60;;;7.10;99.90;;;;;;5099174;28;25095;-72
2023/02/12 02:00:32;;;;;;;50.90;23.15;;;7.00;99.90;;;;;;5099238;28;25108;-72
2023/02/12 02:03:01;;;;;;;50.90;23.63;;;7.00;99.90;;;;;;5099370;28;25068;-72
2023/02/12 02:05:50;;;;;;;55.80;25.35;;;7.00;99.90;;;;;;5081080;28;25144;-72
2023/02/12 02:08:18;;;;;;;54.67;24.05;;;7.00;99.90;;;;;;5098518;28;25063;-72
2023/02/12 02:10:45;;;;;;;54.92;25.80;;;6.90;99.90;;;;;;5099306;28;25107;-72
2023/02/12 02:16:01;;;;;;;53.57;24.53;;;6.90;99.90;;;;;;5098528;28;25062;-72
2023/02/12 02:18:44;;;;;;;54.47;24.05;;;6.90;99.90;;;;;;5097809;28;25099;-72
2023/02/12 02:21:20;;;;;;;48.40;24.02;;;6.90;99.90;;;;;;5097696;28;25058;-72
2023/02/12 02:24:21;;;;;;;48.45;22.70;;;6.90;99.90;;;;;;5098715;28;25062;-72
2023/02/12 02:27:15;;;;;;;52.25;23.52;;;6.90;99.90;;;;;;5098588;28;25054;-72
2023/02/12 02:30:13;;;;;;;50.95;22.63;;;6.90;99.90;;;;;;5097964;28;25078;-72
2023/02/12 02:32:57;;;;;;;58.95;25.42;;;6.90;99.90;;;;;;5098052;28;25099;-72
2023/02/12 02:35:43;;;;;;;47.78;22.30;;;6.90;99.90;;;;;;5096982;28;25098;-72
2023/02/12 02:38:36;;;;;;;49.92;22.92;;;6.80;99.90;;;;;;5098251;28;25089;-72
2023/02/12 02:41:10;;;;;;;49.15;22.48;;;6.80;99.90;;;;;;5097924;28;25148;-72
2023/02/12 02:44:09;;;;;;;54.70;24.27;;;6.80;99.90;;;;;;5098387;28;25054;-72
2023/02/12 02:46:46;;;;;;;51.28;23.20;;;6.80;99.90;;;;;;5097786;28;25063;-72
2023/02/12 02:49:29;;;;;;;48.60;21.90;;;6.80;99.90;;;;;;5097754;28;25064;-72
2023/02/12 02:52:04;;;;;;;43.03;21.27;;;6.80;99.90;;;;;;5097628;28;25051;-72
2023/02/12 02:54:45;;;;;;;47.55;21.92;;;6.80;99.90;;;;;;5097729;28;25097;-72
2023/02/12 02:57:21;;;;;;;44.75;22.02;;;6.80;99.90;;;;;;5097751;28;25056;-72
2023/02/12 02:59:55;;;;;;;;;;;6.80;99.90;;;;;;5098529;28;25070;-72
2023/02/12 03:02:28;;;;;;;47.80;23.42;;;6.80;99.90;;;;;;5089835;28;24070;-72
2023/02/12 03:05:04;;;;;;;46.33;22.80;;;6.80;99.90;;;;;;5098001;28;25099;-72
2023/02/12 03:07:41;;;;;;;49.30;23.75;;;6.80;99.90;;;;;;5097404;28;25099;-72
2023/02/12 03:10:25;;;;;;;52.70;22.70;;;6.80;99.90;;;;;;5097312;28;25047;-72
2023/02/12 03:13:12;;;;;;;48.83;22.73;;;6.80;99.90;;;;;;5097331;28;25125;-72
2023/02/12 03:15:53;;;;;;;50.75;23.48;;;6.80;99.90;;;;;;5097696;28;25091;-72
2023/02/12 03:18:28;;;;;;;50.70;23.27;;;6.80;99.90;;;;;;5097663;28;25052;-72
2023/02/12 03:21:10;;;;;;;51.60;24.73;;;6.80;99.90;;;;;;5079183;28;25093;-72
2023/02/12 03:23:48;;;;;;;58.38;25.02;;;6.80;99.90;;;;;;5079050;28;25107;-72
2023/02/12 03:26:40;;;;;;;50.60;22.20;;;6.80;99.90;;;;;;5097759;28;25098;-72
2023/02/12 03:29:08;;;;;;;52.45;23.45;;;6.80;99.90;;;;;;5096991;28;25145;-72
2023/02/12 03:32:28;;;;;;;55.53;23.73;;;6.80;99.90;;;;;;5097710;28;25126;-72
2023/02/12 03:35:18;;;;;;;56.10;23.85;;;6.80;99.90;;;;;;5015690;28;25123;-72
2023/02/12 03:38:06;;;;;;;63.17;23.30;;;6.80;99.90;;;;;;5058853;28;25143;-72
2023/02/12 03:40:51;;;;;;;52.17;22.85;;;6.80;99.90;;;;;;5076561;28;25079;-72
2023/02/12 03:43:33;;;;;;;49.35;22.40;;;6.80;99.90;;;;;;5058711;28;25104;-72
2023/02/12 03:46:27;;;;;;;58.72;24.98;;;6.80;99.90;;;;;;5075855;28;25105;-72
2023/02/12 03:49:12;;;;;;;52.58;23.88;;;6.70;99.90;;;;;;5058696;28;25109;-72
2023/02/12 03:51:44;;;;;;;51.03;23.17;;;6.70;99.90;;;;;;5076424;28;25074;-72
2023/02/12 03:54:17;;;;;;;48.38;22.10;;;6.70;99.90;;;;;;5076468;28;25071;-72
2023/02/12 03:57:10;;;;;;;50.70;22.35;;;6.70;99.90;;;;;;5058503;28;25053;-72
2023/02/12 03:59:38;;;;;;;51.63;23.88;;;6.70;99.90;;;;;;5058753;28;25043;-72
2023/02/12 04:02:07;;;;;;;50.22;23.58;;;6.70;99.90;;;;;;5076320;28;25069;-72
2023/02/12 04:04:34;;;;;;;50.30;23.20;;;6.70;99.90;;;;;;5076880;28;25071;-72
2023/02/12 04:07:01;;;;;;;49.90;24.33;;;6.70;99.90;;;;;;5058415;28;25071;-72
2023/02/12 04:09:31;;;;;;;49.20;23.63;;;6.70;99.90;;;;;;5058901;28;25048;-72
2023/02/12 04:12:27;;;;;;;45.22;22.67;;;6.70;99.90;;;;;;5076218;28;25069;-72
2023/02/12 04:15:28;;;;;;;48.72;21.35;;;6.70;99.90;;;;;;5076181;28;25129;-72
2023/02/12 04:18:19;;;;;;;47.28;22.45;;;6.70;99.90;;;;;;5076780;28;25083;-72
2023/02/12 04:20:58;;;;;;;47.53;22.05;;;6.70;99.90;;;;;;5076666;28;25092;-72
2023/02/12 04:24:06;;;;;;;59.92;23.98;;;6.70;99.90;;;;;;5076107;28;25093;-72
2023/02/12 04:26:49;;;;;;;46.58;21.85;;;6.70;99.90;;;;;;5058444;28;25092;-72
2023/02/12 04:29:32;;;;;;;50.80;23.23;;;6.70;99.90;;;;;;5076805;28;25100;-72
2023/02/12 04:32:12;;;;;;;45.20;21.00;;;6.70;99.90;;;;;;5058158;28;25076;-72
2023/02/12 04:34:57;;;;;;;47.95;24.05;;;6.70;99.90;;;;;;5094432;28;25103;-72
2023/02/12 04:37:40;;;;;;;56.42;22.73;;;6.60;99.90;;;;;;5096675;28;25055;-72
2023/02/12 04:40:13;;;;;;;50.53;23.05;;;6.70;99.90;;;;;;5096179;28;25051;-72
2023/02/12 04:42:46;;;;;;;52.40;24.23;;;6.70;99.90;;;;;;5078211;28;25096;-72
2023/02/12 04:45:21;;;;;;;58.08;24.75;;;6.70;99.90;;;;;;5100434;28;25045;-72
2023/02/12 04:47:49;;;;;;;49.45;23.33;;;6.70;99.90;;;;;;5101195;28;25091;-72
2023/02/12 04:50:16;;;;;;;51.40;23.13;;;6.70;99.90;;;;;;5100328;28;25097;-72
2023/02/12 04:52:44;;;;;;;54.35;25.58;;;6.70;99.90;;;;;;5100518;28;25080;-72
2023/02/12 04:55:11;;;;;;;53.38;24.80;;;6.70;99.90;;;;;;5082124;28;25156;-72
2023/02/12 04:57:38;;;;;;;54.08;23.00;;;6.60;99.90;;;;;;5099853;28;25074;-72
2023/02/12 05:00:08;;;;;;;53.47;22.75;;;6.70;99.90;;;;;;5100411;28;25065;-72
2023/02/12 05:02:35;;;;;;;49.15;21.83;;;6.60;99.90;;;;;;5100116;28;25118;-72
2023/02/12 05:05:03;;;;;;;55.75;23.35;;;6.70;99.90;;;;;;5100503;28;25085;-72
2023/02/12 05:07:31;;;;;;;55.83;23.98;;;6.70;99.90;;;;;;5081755;28;25072;-72
2023/02/12 05:09:58;;;;;;;43.92;22.23;;;6.70;99.90;;;;;;5099630;28;25101;-72
2023/02/12 05:12:26;;;;;;;54.45;24.85;;;6.70;99.90;;;;;;5099516;28;25053;-72
2023/02/12 05:14:53;;;;;;;50.28;23.45;;;6.70;99.90;;;;;;5099702;28;25056;-72
2023/02/12 05:17:24;;;;;;;53.53;23.92;;;6.60;99.90;;;;;;5099490;28;25110;-72
2023/02/12 05:19:51;;;;;;;59.83;25.50;;;6.70;99.90;;;;;;5100011;28;25064;-72
2023/02/12 05:22:19;;;;;;;55.67;24.55;;;6.70;99.90;;;;;;5099405;28;25052;-72
2023/02/12 05:24:46;;;;;;;54.28;24.33;;;6.70;99.90;;;;;;5081554;28;25069;-72
2023/02/12 05:27:13;;;;;;;54.83;24.45;;;6.70;99.90;;;;;;5081359;28;25076;-72
2023/02/12 05:29:40;;;;;;;50.92;24.13;;;6.70;99.90;;;;;;5099834;28;25065;-72
2023/02/12 05:32:08;;;;;;;56.97;25.48;;;6.70;99.90;;;;;;5099223;28;25070;-72
2023/02/12 05:34:35;;;;;;;51.40;23.40;;;6.70;99.90;;;;;;5099020;28;25153;-72
2023/02/12 05:37:02;;;;;;;55.83;24.55;;;6.70;99.90;;;;;;5099064;28;25067;-72
2023/02/12 05:39:30;;;;;;;59.35;25.73;;;6.60;99.90;;;;;;5099595;28;25075;-72
2023/02/12 05:41:57;;;;;;;54.15;25.20;;;6.60;99.90;;;;;;5099088;28;25120;-72
2023/02/12 05:44:24;;;;;;;48.78;24.55;;;6.60;99.90;;;;;;5081121;28;25070;-72
2023/02/12 05:46:52;;;;;;;60.33;25.45;;;6.60;99.90;;;;;;5080987;28;25113;-72
2023/02/12 05:49:19;;;;;;;62.53;25.73;;;6.60;99.90;;;;;;5081114;28;25110;-72
2023/02/12 05:51:46;;;;;;;57.92;25.27;;;6.60;99.90;;;;;;5098883;28;25076;-72
2023/02/12 05:54:13;;;;;;;63.33;27.30;;;6.60;99.90;;;;;;5080765;28;25091;-72
2023/02/12 05:56:47;;;;;;;57.13;24.98;;;6.60;99.90;;;;;;5097617;28;25144;-72
2023/02/12 05:59:21;;;;;;;59.40;26.88;;;6.60;99.90;;;;;;5099441;28;25126;-72
2023/02/12 06:01:50;;;;;;;60.22;25.10;;;6.60;99.90;;;;;;5098666;28;25072;-72
2023/02/12 06:04:27;;;;;;;57.00;25.48;;;6.60;99.90;;;;;;5098665;28;25124;-72
2023/02/12 06:06:55;;;;;;;57.05;22.80;;;6.60;99.90;;;;;;5080634;28;25066;-72
2023/02/12 06:09:23;;;;;;;61.55;25.77;;;6.60;99.90;;;;;;5081005;28;25076;-72
2023/02/12 06:11:51;;;;;;;64.00;25.30;;;6.60;99.90;;;;;;5098787;28;25112;-72
2023/02/12 06:14:19;;;;;;;60.17;25.27;;;6.70;99.90;;;;;;5098437;28;25056;-73
2023/02/12 06:16:48;;;;;;;60.38;26.45;;;6.70;99.90;;;;;;5098849;28;25133;-72
2023/02/12 06:19:16;;;;;;;60.15;24.23;;;6.70;99.90;;;;;;5098544;28;25122;-72
2023/02/12 06:21:44;;;;;;;61.22;25.73;;;6.70;99.90;;;;;;5098846;28;25047;-72
2023/02/12 06:24:16;;;;;;;56.47;24.67;;;6.60;99.90;;;;;;5080269;28;25097;-72
2023/02/12 06:26:46;;;;;;;53.42;23.30;;;6.60;99.90;;;;;;5098070;28;25083;-72
2023/02/12 06:29:13;;;;;;;61.97;24.27;;;6.70;99.90;;;;;;5098324;28;25058;-72
2023/02/12 06:31:41;;;;;;;53.80;24.52;;;6.70;99.90;;;;;;5098051;28;25073;-72
2023/02/12 06:34:10;;;;;;;49.47;22.92;;;6.70;99.90;;;;;;5076516;28;25071;-72
2023/02/12 06:36:41;;;;;;;54.97;23.90;;;6.70;99.90;;;;;;5076585;28;25105;-72
2023/02/12 06:39:09;;;;;;;50.85;23.25;;;6.70;99.90;;;;;;5077820;28;25068;-72
2023/02/12 06:41:37;;;;;;;62.65;25.30;;;6.70;99.90;;;;;;5078127;28;25055;-72
2023/02/12 06:44:05;;;;;;;61.97;23.48;;;6.60;99.90;;;;;;5077554;28;25097;-72
2023/02/12 06:46:32;;;;;;;53.95;23.48;;;6.60;99.90;;;;;;5077527;28;25105;-72
2023/02/12 06:49:00;;;;;;;67.45;25.60;;;6.60;99.90;;;;;;5076331;28;25058;-71
2023/02/12 06:51:28;;;;;;;51.85;24.35;;;6.60;99.90;;;;;;5077428;28;25094;-71
2023/02/12 06:53:56;;;;;;;68.35;27.33;;;6.60;99.90;;;;;;5078151;28;25101;-72
2023/02/12 06:56:24;;;;;;;59.40;24.27;;;6.70;99.90;;;;;;5076135;28;25059;-72
2023/02/12 06:58:56;;;;;;;60.47;25.73;;;6.70;99.90;;;;;;5077424;28;25069;-72
2023/02/12 07:01:26;;;;;;;58.08;24.20;;;6.60;99.90;;;;;;5077222;28;25092;-72
2023/02/12 07:04:01;;;;;;;61.80;24.55;;;6.70;99.90;;;;;;5077188;28;25061;-72
2023/02/12 07:06:30;;;;;;;67.17;27.60;;;6.60;99.90;;;;;;5075922;28;25060;-70
2023/02/12 07:08:58;;;;;;;68.85;25.13;;;6.70;99.90;;;;;;5077091;28;25116;-69
2023/02/12 07:11:30;;;;;;;62.75;24.73;;;6.70;99.90;;;;;;5077135;28;25135;-76
2023/02/12 07:13:58;;;;;;;53.60;24.25;;;6.70;99.90;;;;;;5077243;28;25082;-76
2023/02/12 07:16:25;;;;;;;56.00;23.98;;;6.70;99.90;;;;;;5077036;28;25078;-75
2023/02/12 07:18:53;;;;;;;52.30;24.10;;;6.70;99.90;;;;;;5076825;28;25037;-75
2023/02/12 07:21:21;;;;;;;52.03;22.92;;;6.70;99.90;;;;;;5076752;28;25082;-77
2023/02/12 07:23:50;;;;;;;59.88;22.80;;;6.70;99.90;;;;;;5077090;28;25071;-79
2023/02/12 07:26:18;;;;;;;51.05;23.42;;;6.70;99.90;;;;;;5075824;28;25070;-78
2023/02/12 07:28:46;;;;;;;56.00;22.30;;;6.70;99.90;;;;;;5075712;28;25115;-80
2023/02/12 07:31:19;;;;;;;55.50;25.17;;;6.70;99.90;;;;;;5075665;28;25047;-77
2023/02/12 07:33:47;;;;;;;55.92;22.98;;;6.70;99.90;;;;;;5087250;28;25071;-76
2023/02/12 07:36:17;;;;;;;51.90;22.88;;;6.70;99.90;;;;;;5097498;28;25097;-77
2023/02/12 07:38:45;;;;;;;50.97;21.92;;;6.70;99.90;;;;;;5096820;28;25052;-77
2023/02/12 07:41:18;;;;;;;45.50;20.95;;;6.80;99.90;;;;;;5078895;28;25063;-76
2023/02/12 07:43:47;;;;;;;51.10;21.65;;;6.80;99.90;;;;;;5097068;28;25105;-77
2023/02/12 07:46:19;;;;;;;50.80;20.90;;;6.80;99.90;;;;;;5078948;28;25050;-75
2023/02/12 07:48:47;;;;;;;44.58;20.58;;;6.80;99.90;;;;;;5096703;28;25099;-75
2023/02/12 07:51:18;;;;;;;44.67;19.83;;;6.80;99.90;;;;;;5078745;28;25096;-75
2023/02/12 07:53:46;;;;;;;42.17;19.60;;;6.80;99.90;;;;;;5078685;28;25139;-76
2023/02/12 07:56:19;;;;;;;39.70;19.70;;;6.80;99.90;;;;;;5078741;28;25113;-76
2023/02/12 07:58:48;;;;;;;40.80;18.77;;;6.90;99.90;;;;;;5096585;28;25076;-75
2023/02/12 08:01:18;;;;;;;44.83;19.02;;;6.90;99.90;;;;;;5096550;28;25076;-75
2023/02/12 08:03:47;;;;;;;44.13;19.05;;;6.90;99.90;;;;;;5096511;28;25077;-69
2023/02/12 08:06:26;;;;;;;41.42;19.02;;;6.90;99.90;;;;;;5078537;28;25106;-71
2023/02/12 08:08:57;;;;;;;43.08;18.55;;;6.90;99.90;;;;;;5078818;28;25100;-70
2023/02/12 08:11:26;;;;;;;42.30;18.83;;;6.90;99.90;;;;;;5078517;28;25074;-69
2023/02/12 08:13:54;;;;;;;47.00;18.88;;;6.90;99.90;;;;;;5096465;28;25120;-69
2023/02/12 08:16:24;;;;;;;41.03;19.42;;;6.90;99.90;;;;;;5096896;28;25134;-70
2023/02/12 08:18:52;;;;;;;44.05;19.45;;;7.00;99.90;;;;;;5079891;28;25069;-71
2023/02/12 08:21:26;;;;;;;42.50;19.95;;;7.00;99.90;;;;;;5100749;28;25068;-70
2023/02/12 08:23:55;;;;;;;34.45;17.38;;;7.00;99.90;;;;;;5100546;28;25066;-70
2023/02/12 08:26:28;;;;;;;37.28;17.85;;;7.00;99.90;;;;;;5101055;28;25071;-70
2023/02/12 08:29:01;;;;;;;36.65;17.33;;;7.00;99.90;;;;;;5100410;28;25105;-69
2023/02/12 08:31:34;;;;;;;40.92;18.20;;;7.00;99.90;;;;;;5100529;28;25054;-71
2023/02/12 08:34:02;;;;;;;36.40;17.73;;;7.00;99.90;;;;;;5100186;28;25165;-72
2023/02/12 08:36:37;;;;;;;38.78;17.83;;;7.10;99.90;;;;;;5100811;28;25097;-71
2023/02/12 08:39:05;;;;;;;32.88;17.13;;;7.10;99.90;;;;;;5100270;28;25110;-71
2023/02/12 08:41:34;;;;;;;37.88;18.48;;;7.10;99.90;;;;;;5100390;28;25090;-71
2023/02/12 08:44:03;;;;;;;33.22;17.90;;;7.10;99.90;;;;;;5100170;28;25144;-71
2023/02/12 08:46:35;;;;;;;32.42;16.92;;;7.20;99.90;;;;;;5082997;28;25125;-70
2023/02/12 08:49:09;;;;;;;32.72;16.83;;;7.20;99.90;;;;;;5100059;28;25068;-70
2023/02/12 08:51:39;;;;;;;33.38;16.80;;;7.20;99.90;;;;;;5099843;28;25080;-70
2023/02/12 08:54:11;;;;;;;30.98;16.83;;;7.30;99.90;;;;;;5099909;28;25063;-70
2023/02/12 08:56:38;;;;;;;31.80;16.95;;;7.30;99.90;;;;;;5099784;28;25140;-70
2023/02/12 08:59:07;;;;;;;30.98;16.65;;;7.30;99.90;;;;;;5100385;28;25057;-70
2023/02/12 09:01:43;;;;;;;32.25;16.90;;;7.30;99.90;;;;;;5099852;28;25089;-70
2023/02/12 09:04:20;;;;;;;;;;;7.30;99.90;;;;;;5100550;28;25114;-69
2023/02/12 09:06:48;;;;;;;33.42;16.63;;;7.30;99.90;;;;;;5099723;28;24067;-69
2023/02/12 09:09:15;;;;;;;32.47;16.85;;;7.40;99.90;;;;;;5099821;28;25094;-69
2023/02/12 09:11:43;;;;;;;33.80;17.63;;;7.40;99.90;;;;;;5100214;28;25081;-70
2023/02/12 09:14:13;;;;;;;34.60;17.52;;;7.40;99.90;;;;;;5082299;28;25062;-69
2023/02/12 09:16:41;;;;;;;34.33;18.17;;;7.40;99.90;;;;;;5099466;28;25115;-70
2023/02/12 09:19:14;;;;;;;29.00;15.30;;;7.40;99.90;;;;;;5099523;28;25058;-70
2023/02/12 09:21:42;;;;;;;30.30;17.02;;;7.40;99.90;;;;;;5099446;28;25066;-70
2023/02/12 09:24:09;;;;;;;33.85;17.50;;;7.40;99.90;;;;;;5099401;28;25073;-70
2023/02/12 09:26:38;;;;;;;28.65;15.32;;;7.50;99.90;;;;;;5099333;28;25081;-69
2023/02/12 09:29:06;;;;;;;27.75;15.15;;;7.50;99.90;;;;;;5081167;28;25103;-70
2023/02/12 09:31:33;;;;;;;33.88;17.67;;;7.50;99.90;;;;;;5100121;28;25129;-70
2023/02/12 09:34:04;;;;;;;33.67;17.77;;;7.60;99.90;;;;;;5099217;28;25110;-69
2023/02/12 09:36:32;;;;;;;28.80;15.50;;;7.60;99.90;;;;;;5099135;28;25130;-69
2023/02/12 09:39:00;;;;;;;31.23;16.40;;;7.60;99.90;;;;;;5081161;28;25069;-70
2023/02/12 09:41:54;;;;;;;31.38;15.63;;;7.60;99.90;;;;;;5099605;28;25054;-70
2023/02/12 09:44:44;;;;;;;30.25;15.77;;;7.70;99.90;;;;;;5099711;28;25078;-71
2023/02/12 09:47:24;;;;;;;23.02;12.68;;;7.70;99.90;;;;;;5080924;28;25060;-71
2023/02/12 09:50:09;;;;;;;24.17;13.10;;;7.80;99.90;;;;;;5098955;28;25062;-70
2023/02/12 09:52:37;;;;;;;26.88;13.05;;;7.90;99.90;;;;;;5099170;28;25079;-71
2023/02/12 09:55:04;;;;;;;23.40;12.63;;;7.90;99.90;;;;;;5064362;28;25099;-70
2023/02/12 09:57:37;;;;;;;21.55;12.82;;;8.00;99.90;;;;;;5098670;28;25070;-70
2023/02/12 10:00:19;;;;;;;26.00;14.07;;;8.10;99.90;;;;;;5098734;28;25094;-70
2023/02/12 10:02:48;;;;;;;19.85;11.27;;;8.10;99.90;;;;;;5098634;28;25055;-70
2023/02/12 10:05:26;;;;;;;22.02;11.65;;;8.10;99.90;;;;;;5098768;28;25073;-70
2023/02/12 10:08:33;;;;;;;18.48;9.85;;;8.10;99.90;;;;;;5098533;28;25065;-70
2023/02/12 10:11:08;;;;;;;20.85;10.82;;;8.10;99.90;;;;;;5098516;28;25063;-70
2023/02/12 10:13:58;;;;;;;20.65;12.13;;;8.20;99.90;;;;;;5098344;28;25058;-75
2023/02/12 10:16:41;;;;;;;15.75;9.60;;;8.20;99.90;;;;;;5080289;28;25132;-70
2023/02/12 10:19:30;;;;;;;22.20;12.07;;;8.30;99.90;;;;;;5098904;28;25121;-69
2023/02/12 10:22:13;;;;;;;17.45;9.50;;;8.30;99.90;;;;;;5080293;28;25100;-69
2023/02/12 10:25:03;;;;;;;16.33;9.68;;;8.40;99.90;;;;;;5098999;28;25074;-69
2023/02/12 10:28:05;;;;;;;17.98;10.13;;;8.40;99.90;;;;;;5080216;28;25072;-69
2023/02/12 10:30:49;;;;;;;18.30;10.38;;;8.50;99.90;;;;;;5095640;28;25080;-70
2023/02/12 10:33:27;;;;;;;16.30;9.45;;;8.50;99.90;;;;;;5097870;28;25078;-74
2023/02/12 10:36:11;;;;;;;18.45;9.95;;;8.50;99.90;;;;;;5098604;28;25078;-70
2023/02/12 10:38:44;;;;;;;19.58;10.23;;;8.60;99.90;;;;;;5098519;28;25099;-69
2023/02/12 10:41:16;;;;;;;21.00;11.07;;;8.60;99.90;;;;;;5097191;28;25067;-70
2023/02/12 10:43:43;;;;;;;18.02;10.23;;;8.60;99.90;;;;;;5098392;28;25043;-70
2023/02/12 10:46:18;;;;;;;33.47;11.25;;;8.70;99.90;;;;;;5097805;28;25113;-69
2023/02/12 10:48:57;;;;;;;17.95;9.85;;;8.60;99.90;;;;;;5097948;28;25133;-70
2023/02/12 10:51:43;;;;;;;19.38;10.85;;;8.60;99.90;;;;;;5097692;28;25115;-70
2023/02/12 10:54:37;;;;;;;23.33;12.07;;;8.60;99.90;;;;;;5098257;28;25100;-69
2023/02/12 10:57:25;;;;;;;21.08;12.52;;;8.50;99.90;;;;;;5079559;28;25070;-70
2023/02/12 10:59:56;;;;;;;19.70;11.93;;;8.50;99.90;;;;;;5097680;28;25074;-69
2023/02/12 11:02:29;;;;;;;20.85;12.45;;;8.40;99.90;;;;;;5098046;28;25092;-69
2023/02/12 11:04:58;;;;;;;22.08;11.98;;;8.40;99.90;;;;;;5079554;28;25055;-69
2023/02/12 11:07:27;;;;;;;22.52;12.52;;;8.40;99.90;;;;;;5079355;28;25089;-70
2023/02/12 11:09:56;;;;;;;25.05;11.77;;;8.40;99.90;;;;;;5098159;28;25090;-70
2023/02/12 11:12:47;;;;;;;23.58;12.80;;;8.40;99.90;;;;;;5097407;28;25092;-70
2023/02/12 11:15:21;;;;;;;19.42;10.98;;;8.40;99.90;;;;;;5097202;28;25084;-72
2023/02/12 11:18:06;;;;;;;21.02;11.38;;;8.40;99.90;;;;;;5097627;28;25065;-70
2023/02/12 11:20:40;;;;;;;18.77;10.77;;;8.40;99.90;;;;;;5097322;28;25077;-71
2023/02/12 11:23:30;;;;;;;19.60;10.90;;;8.40;99.90;;;;;;5079054;28;25053;-70
2023/02/12 11:26:24;;;;;;;19.38;11.13;;;8.40;99.90;;;;;;5097066;28;25105;-70
2023/02/12 11:29:17;;;;;;;18.90;10.70;;;8.50;99.90;;;;;;5097470;28;25106;-70
2023/02/12 11:32:01;;;;;;;17.30;10.57;;;8.50;99.90;;;;;;5096958;28;25053;-73
2023/02/12 11:34:29;;;;;;;19.02;10.82;;;8.50;99.90;;;;;;5096825;28;25061;-71
2023/02/12 11:36:57;;;;;;;23.13;11.63;;;8.40;99.90;;;;;;5078883;28;25049;-71
2023/02/12 11:39:35;;;;;;;24.30;12.57;;;8.40;99.90;;;;;;5096997;28;25071;-71
2023/02/12 11:42:24;;;;;;;23.58;12.18;;;8.40;99.90;;;;;;5096833;28;25093;-69
2023/02/12 11:44:56;;;;;;;17.70;9.63;;;8.40;99.90;;;;;;5096682;28;25116;-70
2023/02/12 11:47:34;;;;;;;19.30;10.13;;;8.50;99.90;;;;;;5097271;28;25072;-69
2023/02/12 11:50:33;;;;;;;17.33;9.20;;;8.60;99.90;;;;;;5097282;28;25105;-69
2023/02/12 11:53:08;;;;;;;18.17;8.75;;;8.60;99.90;;;;;;5078084;28;25077;-71
2023/02/12 11:55:40;;;;;;;15.57;8.23;;;8.70;99.90;;;;;;5096630;28;25062;-71
2023/02/12 11:58:21;;;;;;;16.20;8.43;;;8.80;99.90;;;;;;5096547;28;25124;-70
2023/02/12 12:01:19;;;;;;;13.45;7.35;;;8.80;99.90;;;;;;5078889;28;25105;-71
2023/02/12 12:04:04;;;;;;;;;;;8.90;99.90;;;;;;5097158;28;25063;-70
2023/02/12 12:06:37;;;;;;;15.15;7.82;;;8.90;99.90;;;;;;5096750;28;25105;-71
2023/02/12 12:09:28;;;;;;;12.82;7.53;;;9.00;99.90;;;;;;5096324;28;25120;-70
2023/02/12 12:12:06;;;;;;;12.45;7.70;;;9.00;99.90;;;;;;5096951;28;25059;-69
2023/02/12 12:20:43;;;;;;;9.25;6.03;;;9.30;99.90;;;;;;5096731;28;25076;-71
2023/02/12 12:23:20;;;;;;;11.07;6.15;;;9.40;99.90;;;;;;5096875;28;25214;-71
2023/02/12 12:25:56;;;;;;;11.77;5.93;;;9.50;99.90;;;;;;5078585;28;25049;-71
2023/02/12 12:28:44;;;;;;;9.40;6.00;;;9.60;99.90;;;;;;5096715;28;25056;-71
2023/02/12 12:31:17;;;;;;;11.82;6.38;;;9.60;99.90;;;;;;5096882;28;25071;-71
2023/02/12 12:33:56;;;;;;;11.20;6.10;;;9.70;99.90;;;;;;5096301;28;25066;-71
2023/02/12 12:36:54;;;;;;;12.52;6.90;;;9.60;99.90;;;;;;5078253;28;25088;-71
2023/02/12 12:39:40;;;;;;;13.82;8.10;;;9.60;99.90;;;;;;5078385;28;25097;-71
2023/02/12 12:42:26;;;;;;;12.13;7.43;;;9.60;99.90;;;;;;5078306;28;25093;-71
2023/02/12 12:45:18;;;;;;;11.75;7.80;;;9.60;99.90;;;;;;5078501;28;25068;-71
2023/02/12 12:48:08;;;;;;;15.00;8.73;;;9.50;99.90;;;;;;5096446;28;25075;-71
2023/02/12 12:51:11;;;;;;;15.05;8.60;;;9.40;99.90;;;;;;5096698;28;25077;-71
2023/02/12 12:53:58;;;;;;;13.40;7.90;;;9.20;99.90;;;;;;5096089;28;25115;-71
2023/02/12 12:56:58;;;;;;;14.63;7.78;;;9.20;99.90;;;;;;5077963;28;25150;-71
2023/02/12 12:59:55;;;;;;;15.70;7.72;;;9.10;99.90;;;;;;5096095;28;25053;-70
2023/02/12 13:02:47;;;;;;;15.77;8.48;;;9.00;99.90;;;;;;5074146;28;25083;-71
2023/02/12 13:05:40;;;;;;;18.27;8.75;;;8.90;99.90;;;;;;5098430;28;25049;-71
2023/02/12 13:08:19;;;;;;;17.38;9.10;;;8.90;99.90;;;;;;5099750;28;25079;-71
2023/02/12 13:10:54;;;;;;;15.20;9.23;;;8.80;99.90;;;;;;5100211;28;25067;-71
2023/02/12 13:13:47;;;;;;;18.20;9.88;;;8.80;99.90;;;;;;5100163;28;25095;-71
2023/02/12 13:16:36;;;;;;;17.02;9.00;;;8.70;99.90;;;;;;5081533;28;25164;-71
2023/02/12 13:19:20;;;;;;;17.52;9.20;;;8.70;99.90;;;;;;5100254;28;25106;-71
2023/02/12 13:22:02;;;;;;;18.23;9.80;;;8.60;99.90;;;;;;5099490;28;25070;-70
2023/02/12 13:24:43;;;;;;;18.33;10.43;;;8.60;99.90;;;;;;5099889;28;25059;-70
2023/02/12 13:27:19;;;;;;;16.30;9.45;;;8.50;99.90;;;;;;5099350;28;25124;-69
2023/02/12 13:30:00;;;;;;;25.80;11.30;;;8.50;99.90;;;;;;5100062;28;25095;-70